Capitol Logistics 992

Operating for DHL



EGNX
East Midlands Airport
Derby, GB
EGFF
Cardiff International Airport
Cardiff, GB

Activity Log

Date Flight Route Aircraft Duration
05/15/2022 CPX992 DTY4P DTY M605 SILVA M183 CPT CDF1C B738 0h 54m
01/19/2022 CPX992 sosab B738 0h 49m

Route Details

Aircraft Information
Group: European Fleet
Types: A30F,A31F,B738
Route Data
Demand: M
Distance: 114nm
Duration: 1h 00m
Recm'd Route: DTY3N DTY M605 SILVA M183 CPT CDF1C
Origin Wx: EGNX 272150Z 31012KT 9999 FEW033 10/06 Q1026
Dest. Wx: EGFF 272150Z AUTO 30005KT 9999 NCD 11/05 Q1028
Notes:

Financial History
Total Freight: 58,077lbs
Average Load: 29,039lbs/flt
Fuel Used: 8,084lbs
Avg. Fuel Used: 4,042lbs/flt
Fuel Expense: $3,766
Avg. Fuel Expense: $1,883
Avg. Fuel Cost: $0.46/lbs
Total Gross Income: $124,871
Pilot Pay: $378
Total Expenses: $15,808
Total Revenue: $105,106
Average Revenue: $62,435.69